Time;durP1;ratioP1;P1;durP2;ratioP2;P2;SDS_P1;SDS_P2;PMS_P1;PMS_P2;Temp;Humidity;BMP_temperature;BMP_pressure;BME280_temperature;BME280_humidity;BME280_pressure;Samples;Min_cycle;Max_cycle;Signal;HPM_P1;HPM_P2
2023/08/01 00:01:34;;;;;;;2.20;2.00;;;;;;;;;;5016489;28;20276;-93
2023/08/01 00:04:02;;;;;;;2.50;2.30;;;;;;;;;;5015156;28;20229;-93
2023/08/01 00:06:29;;;;;;;2.17;1.83;;;;;;;;;;5020717;28;20209;-93
2023/08/01 00:08:56;;;;;;;2.17;1.98;;;;;;;;;;5015996;28;20296;-93
2023/08/01 00:11:24;;;;;;;2.40;2.20;;;;;;;;;;5017997;28;20289;-94
2023/08/01 00:13:52;;;;;;;3.33;2.42;;;;;;;;;;5024674;28;20212;-93
2023/08/01 00:16:19;;;;;;;4.80;2.30;;;;;;;;;;5020294;28;20213;-93
2023/08/01 00:18:48;;;;;;;2.30;2.08;;;;;;;;;;5016031;28;20243;-93
2023/08/01 00:21:15;;;;;;;2.55;2.00;;;;;;;;;;5017166;28;20208;-93
2023/08/01 00:23:43;;;;;;;2.15;1.85;;;;;;;;;;5019173;28;20222;-94
2023/08/01 00:26:10;;;;;;;2.22;2.13;;;;;;;;;;5021651;28;20216;-93
2023/08/01 00:28:38;;;;;;;3.28;2.10;;;;;;;;;;5023100;28;20215;-93
2023/08/01 00:31:06;;;;;;;2.47;1.90;;;;;;;;;;5018024;28;20215;-93
2023/08/01 00:33:34;;;;;;;2.67;1.90;;;;;;;;;;5028174;28;20220;-93
2023/08/01 00:36:08;;;;;;;4.15;2.00;;;;;;;;;;5021442;28;20214;-93
2023/08/01 00:38:36;;;;;;;2.75;2.20;;;;;;;;;;5031891;28;20208;-94
2023/08/01 00:41:03;;;;;;;2.15;1.90;;;;;;;;;;5026839;28;20267;-93
2023/08/01 00:43:31;;;;;;;2.00;1.80;;;;;;;;;;5019231;28;20229;-93
2023/08/01 00:46:01;;;;;;;3.55;2.10;;;;;;;;;;5024720;28;20212;-93
2023/08/01 00:48:28;;;;;;;2.00;1.83;;;;;;;;;;5025973;28;20220;-92
2023/08/01 00:50:56;;;;;;;3.03;1.92;;;;;;;;;;5020091;28;20208;-93
2023/08/01 00:53:25;;;;;;;2.35;2.17;;;;;;;;;;5035088;28;20212;-93
2023/08/01 00:55:54;;;;;;;3.05;1.77;;;;;;;;;;5030635;28;20212;-92
2023/08/01 00:58:21;;;;;;;3.17;1.80;;;;;;;;;;5021403;28;20215;-94
2023/08/01 01:00:49;;;;;;;1.95;1.85;;;;;;;;;;5015689;28;20215;-93
2023/08/01 01:03:16;;;;;;;3.85;1.85;;;;;;;;;;5014264;28;20303;-92
2023/08/01 01:05:49;;;;;;;2.30;1.70;;;;;;;;;;5021487;28;20215;-93
2023/08/01 01:08:16;;;;;;;2.15;1.63;;;;;;;;;;5019161;28;20219;-94
2023/08/01 01:10:45;;;;;;;2.58;1.50;;;;;;;;;;5030405;28;20200;-92
2023/08/01 01:13:13;;;;;;;1.60;1.50;;;;;;;;;;5020883;28;20208;-93
2023/08/01 01:15:40;;;;;;;2.35;1.63;;;;;;;;;;5018431;28;20213;-93
2023/08/01 01:18:08;;;;;;;2.08;1.40;;;;;;;;;;5017813;28;20219;-92
2023/08/01 01:20:37;;;;;;;1.80;1.70;;;;;;;;;;5014763;28;20215;-93
2023/08/01 01:23:06;;;;;;;2.10;1.90;;;;;;;;;;5014799;28;20232;-92
2023/08/01 01:25:34;;;;;;;2.13;2.00;;;;;;;;;;5015290;28;20292;-93
2023/08/01 01:28:01;;;;;;;2.90;1.65;;;;;;;;;;5013515;28;20215;-93
2023/08/01 01:30:30;;;;;;;2.13;1.90;;;;;;;;;;5014911;28;20207;-93
2023/08/01 01:32:57;;;;;;;1.73;1.63;;;;;;;;;;5013976;28;20208;-93
2023/08/01 01:35:25;;;;;;;2.15;1.63;;;;;;;;;;5014240;28;20201;-93
2023/08/01 01:37:54;;;;;;;1.83;1.60;;;;;;;;;;5022138;28;20205;-93
2023/08/01 01:40:22;;;;;;;1.50;1.40;;;;;;;;;;5014496;28;20208;-93
2023/08/01 01:42:49;;;;;;;1.65;1.55;;;;;;;;;;5014271;28;20235;-93
2023/08/01 01:45:17;;;;;;;2.17;1.48;;;;;;;;;;5023240;28;20266;-93
2023/08/01 01:47:44;;;;;;;1.58;1.48;;;;;;;;;;5015341;28;20223;-94
2023/08/01 01:50:12;;;;;;;2.42;1.40;;;;;;;;;;5020538;28;20208;-94
2023/08/01 01:52:39;;;;;;;1.88;1.60;;;;;;;;;;5020156;28;20244;-94
2023/08/01 01:55:09;;;;;;;1.98;1.60;;;;;;;;;;5030609;28;20212;-93
2023/08/01 01:57:37;;;;;;;2.88;2.00;;;;;;;;;;5018059;28;20204;-93
2023/08/01 02:00:05;;;;;;;2.15;1.77;;;;;;;;;;5025144;28;20212;-93
2023/08/01 02:02:32;;;;;;;2.00;1.65;;;;;;;;;;5026066;28;20287;-93
2023/08/01 02:04:59;;;;;;;8.52;2.13;;;;;;;;;;5026544;28;20204;-93
2023/08/01 02:07:27;;;;;;;1.98;1.77;;;;;;;;;;5027656;28;20205;-93
2023/08/01 02:09:54;;;;;;;2.45;1.70;;;;;;;;;;5026211;28;20252;-93
2023/08/01 02:12:23;;;;;;;2.08;1.75;;;;;;;;;;5005507;28;20212;-93
2023/08/01 02:14:51;;;;;;;4.28;1.80;;;;;;;;;;5019759;28;20211;-92
2023/08/01 02:17:18;;;;;;;1.73;1.40;;;;;;;;;;5023203;28;20201;-94
2023/08/01 02:19:46;;;;;;;2.92;1.58;;;;;;;;;;5030533;28;20238;-92
2023/08/01 02:22:14;;;;;;;1.67;1.40;;;;;;;;;;5018329;28;20197;-93
2023/08/01 02:24:41;;;;;;;2.00;1.45;;;;;;;;;;5017476;28;20259;-94
2023/08/01 02:27:09;;;;;;;2.42;1.45;;;;;;;;;;5018014;28;20212;-93
2023/08/01 02:29:37;;;;;;;3.03;1.70;;;;;;;;;;5017520;28;20213;-94
2023/08/01 02:32:05;;;;;;;1.75;1.65;;;;;;;;;;5017039;28;20208;-91
2023/08/01 02:34:33;;;;;;;1.88;1.70;;;;;;;;;;5017770;28;20200;-94
2023/08/01 02:37:00;;;;;;;1.70;1.60;;;;;;;;;;5017933;28;20216;-94
2023/08/01 02:39:28;;;;;;;1.77;1.67;;;;;;;;;;5021594;28;20216;-94
2023/08/01 02:41:55;;;;;;;2.22;1.75;;;;;;;;;;5034217;28;20215;-93
2023/08/01 02:44:23;;;;;;;1.70;1.58;;;;;;;;;;5019360;28;20310;-94
2023/08/01 02:46:52;;;;;;;1.98;1.60;;;;;;;;;;5023614;28;20206;-95
2023/08/01 02:49:20;;;;;;;1.60;1.50;;;;;;;;;;5038211;28;20204;-93
2023/08/01 02:51:47;;;;;;;2.45;1.50;;;;;;;;;;5026968;28;20208;-93
2023/08/01 02:54:14;;;;;;;1.77;1.30;;;;;;;;;;5023825;28;20216;-93
2023/08/01 02:56:42;;;;;;;2.15;1.30;;;;;;;;;;5017747;28;20283;-94
2023/08/01 02:59:10;;;;;;;2.47;1.50;;;;;;;;;;5020120;28;20214;-94
2023/08/01 03:01:37;;;;;;;1.77;1.30;;;;;;;;;;5023273;28;20308;-93
2023/08/01 03:04:07;;;;;;;0.90;0.90;;;;;;;;;;5035490;28;20315;-94
2023/08/01 03:06:35;;;;;;;1.08;1.08;;;;;;;;;;5028428;28;20219;-94
2023/08/01 03:09:02;;;;;;;0.80;0.80;;;;;;;;;;5026110;28;20205;-93
2023/08/01 03:11:30;;;;;;;0.93;0.85;;;;;;;;;;5015614;28;20231;-94
2023/08/01 03:13:57;;;;;;;1.00;1.00;;;;;;;;;;5030838;28;20247;-93
2023/08/01 03:16:25;;;;;;;1.35;1.23;;;;;;;;;;5034618;28;20222;-91
2023/08/01 03:18:53;;;;;;;0.95;0.95;;;;;;;;;;5028797;28;20243;-94
2023/08/01 03:21:22;;;;;;;2.35;0.90;;;;;;;;;;5022072;28;20240;-94
2023/08/01 03:23:49;;;;;;;0.98;0.98;;;;;;;;;;5016025;28;20235;-93
2023/08/01 03:26:18;;;;;;;1.30;1.00;;;;;;;;;;5016915;28;20201;-94
2023/08/01 03:28:45;;;;;;;1.48;0.90;;;;;;;;;;5023994;28;20291;-94
2023/08/01 03:31:13;;;;;;;1.27;0.90;;;;;;;;;;5016671;28;20212;-94
2023/08/01 03:33:40;;;;;;;1.48;1.00;;;;;;;;;;5017113;28;20204;-93
2023/08/01 03:36:08;;;;;;;0.80;0.80;;;;;;;;;;5016763;28;20219;-93
2023/08/01 03:38:37;;;;;;;1.55;0.95;;;;;;;;;;5029254;28;20239;-94
2023/08/01 03:41:05;;;;;;;0.75;0.75;;;;;;;;;;5029573;28;20208;-93
2023/08/01 03:43:32;;;;;;;0.95;0.93;;;;;;;;;;5028878;28;20228;-93
2023/08/01 03:45:59;;;;;;;0.85;0.80;;;;;;;;;;5023945;28;20208;-93
2023/08/01 03:48:27;;;;;;;0.90;0.90;;;;;;;;;;5016863;28;20203;-93
2023/08/01 03:50:54;;;;;;;1.80;0.90;;;;;;;;;;5020122;28;20324;-93
2023/08/01 03:53:22;;;;;;;3.67;1.15;;;;;;;;;;5036293;28;20215;-94
2023/08/01 03:55:51;;;;;;;1.45;1.00;;;;;;;;;;5035314;28;20211;-93
2023/08/01 03:58:18;;;;;;;0.80;0.80;;;;;;;;;;5025538;28;20215;-92
2023/08/01 04:00:46;;;;;;;1.08;1.00;;;;;;;;;;5021842;28;20212;-93
2023/08/01 04:03:13;;;;;;;1.92;1.10;;;;;;;;;;5028536;28;20209;-94
2023/08/01 04:05:41;;;;;;;0.80;0.80;;;;;;;;;;5023602;28;20210;-94
2023/08/01 04:08:08;;;;;;;0.73;0.70;;;;;;;;;;5034599;28;20210;-94
2023/08/01 04:10:36;;;;;;;1.52;0.80;;;;;;;;;;5029755;28;20213;-93
2023/08/01 04:13:05;;;;;;;0.73;0.70;;;;;;;;;;5019788;28;20403;-94
2023/08/01 04:15:32;;;;;;;0.82;0.82;;;;;;;;;;5015341;28;20201;-93
2023/08/01 04:17:59;;;;;;;0.70;0.70;;;;;;;;;;5017030;28;20284;-93
2023/08/01 04:20:27;;;;;;;0.77;0.77;;;;;;;;;;5028471;28;20236;-93
2023/08/01 04:22:55;;;;;;;0.80;0.80;;;;;;;;;;5026238;28;20215;-93
2023/08/01 04:25:24;;;;;;;0.77;0.77;;;;;;;;;;5023502;28;20318;-93
2023/08/01 04:27:52;;;;;;;1.55;0.68;;;;;;;;;;5030710;28;20204;-92
2023/08/01 04:30:21;;;;;;;0.57;0.57;;;;;;;;;;5024275;28;20279;-93
2023/08/01 04:32:48;;;;;;;0.68;0.43;;;;;;;;;;5022575;28;20299;-93
2023/08/01 04:35:16;;;;;;;0.70;0.70;;;;;;;;;;5020775;28;20280;-94
2023/08/01 04:37:43;;;;;;;0.50;0.50;;;;;;;;;;5020146;28;20227;-93
2023/08/01 04:40:11;;;;;;;1.48;0.63;;;;;;;;;;5030866;28;20200;-93
2023/08/01 04:42:38;;;;;;;0.50;0.50;;;;;;;;;;5021591;28;20200;-93
2023/08/01 04:45:07;;;;;;;1.45;0.70;;;;;;;;;;5020527;28;20228;-93
2023/08/01 04:47:36;;;;;;;0.68;0.68;;;;;;;;;;5031395;28;20204;-94
2023/08/01 04:50:03;;;;;;;0.50;0.50;;;;;;;;;;5019792;28;20213;-94
2023/08/01 04:52:31;;;;;;;0.52;0.52;;;;;;;;;;5028693;28;20304;-94
2023/08/01 04:54:58;;;;;;;0.40;0.40;;;;;;;;;;5028945;28;20212;-94
2023/08/01 04:57:26;;;;;;;0.40;0.40;;;;;;;;;;5018570;28;20242;-94
2023/08/01 04:59:53;;;;;;;0.47;0.47;;;;;;;;;;5017310;28;20277;-93
2023/08/01 05:02:21;;;;;;;0.63;0.38;;;;;;;;;;5024747;28;20201;-93
2023/08/01 05:04:49;;;;;;;0.40;0.40;;;;;;;;;;5023044;28;20228;-93
2023/08/01 05:07:17;;;;;;;0.38;0.38;;;;;;;;;;5017743;28;20209;-93
2023/08/01 05:09:44;;;;;;;0.63;0.63;;;;;;;;;;5015606;28;20240;-93
2023/08/01 05:12:12;;;;;;;0.20;0.20;;;;;;;;;;5022643;28;20212;-93
2023/08/01 05:14:39;;;;;;;0.68;0.30;;;;;;;;;;5025594;28;20275;-93
2023/08/01 05:17:07;;;;;;;0.30;0.30;;;;;;;;;;5022156;28;20207;-94
2023/08/01 05:19:35;;;;;;;0.20;0.20;;;;;;;;;;5017457;28;20240;-93
2023/08/01 05:22:03;;;;;;;0.73;0.40;;;;;;;;;;5019233;28;20215;-94
2023/08/01 05:24:31;;;;;;;0.90;0.20;;;;;;;;;;5033074;28;20234;-93
2023/08/01 05:26:58;;;;;;;2.50;0.40;;;;;;;;;;5024392;28;20222;-92
2023/08/01 05:29:26;;;;;;;0.10;0.10;;;;;;;;;;5016959;28;20212;-94
2023/08/01 05:31:53;;;;;;;0.90;0.20;;;;;;;;;;5015076;28;20212;-92
2023/08/01 05:34:21;;;;;;;1.10;0.45;;;;;;;;;;5022145;28;20205;-95
2023/08/01 05:36:50;;;;;;;0.80;0.40;;;;;;;;;;5025407;28;20224;-94
2023/08/01 05:39:19;;;;;;;1.23;0.40;;;;;;;;;;5020057;28;20236;-93
2023/08/01 05:41:46;;;;;;;2.45;0.73;;;;;;;;;;5015226;28;20236;-93
2023/08/01 05:44:14;;;;;;;0.70;0.70;;;;;;;;;;5015252;28;20238;-95
2023/08/01 05:46:41;;;;;;;0.75;0.75;;;;;;;;;;5019954;28;20268;-94
2023/08/01 05:49:08;;;;;;;0.82;0.82;;;;;;;;;;5015998;28;20208;-95
2023/08/01 05:51:36;;;;;;;2.40;1.05;;;;;;;;;;5022141;28;20212;-94
2023/08/01 05:54:03;;;;;;;2.75;1.10;;;;;;;;;;5023301;28;20222;-95
2023/08/01 05:56:32;;;;;;;1.10;1.00;;;;;;;;;;5018923;28;20291;-94
2023/08/01 05:59:00;;;;;;;2.95;1.10;;;;;;;;;;5021762;28;20208;-94
2023/08/01 06:01:28;;;;;;;1.10;1.00;;;;;;;;;;5028737;28;20222;-95
2023/08/01 06:03:55;;;;;;;1.67;1.20;;;;;;;;;;5034634;28;20291;-94
2023/08/01 06:06:23;;;;;;;1.30;1.20;;;;;;;;;;5023127;28;20212;-94
2023/08/01 06:08:51;;;;;;;1.60;1.10;;;;;;;;;;5032072;28;20232;-95
2023/08/01 06:11:19;;;;;;;1.33;1.10;;;;;;;;;;5022017;28;20232;-92
2023/08/01 06:13:47;;;;;;;1.40;1.10;;;;;;;;;;5030251;28;20300;-94
2023/08/01 06:16:15;;;;;;;1.67;1.10;;;;;;;;;;5016054;28;20212;-95
2023/08/01 06:18:42;;;;;;;1.10;1.10;;;;;;;;;;5014921;28;20251;-94
2023/08/01 06:21:10;;;;;;;1.08;0.98;;;;;;;;;;5025119;28;20208;-95
2023/08/01 06:23:38;;;;;;;1.38;1.10;;;;;;;;;;5028624;28;20208;-95
2023/08/01 06:26:05;;;;;;;2.53;1.08;;;;;;;;;;5014164;28;20225;-94
2023/08/01 06:28:32;;;;;;;1.40;1.30;;;;;;;;;;5014962;28;20207;-95
2023/08/01 06:31:02;;;;;;;1.85;1.27;;;;;;;;;;5020341;28;20291;-94
2023/08/01 06:33:30;;;;;;;2.20;1.30;;;;;;;;;;5018044;28;20228;-95
2023/08/01 06:35:57;;;;;;;1.35;1.13;;;;;;;;;;5024348;28;20295;-94
2023/08/01 06:38:25;;;;;;;3.15;1.50;;;;;;;;;;5023040;28;20206;-94
2023/08/01 06:40:52;;;;;;;2.42;1.25;;;;;;;;;;5034449;28;20200;-95
2023/08/01 06:43:20;;;;;;;2.85;1.55;;;;;;;;;;5026803;28;20292;-95
2023/08/01 06:45:47;;;;;;;2.15;1.60;;;;;;;;;;5022550;28;20230;-94
2023/08/01 06:48:16;;;;;;;2.88;1.40;;;;;;;;;;5030124;28;20204;-95
2023/08/01 06:50:43;;;;;;;3.08;1.40;;;;;;;;;;5014904;28;20267;-95
2023/08/01 06:53:11;;;;;;;1.75;1.50;;;;;;;;;;5014298;28;20213;-94
2023/08/01 06:55:39;;;;;;;1.88;1.40;;;;;;;;;;5014032;28;20213;-95
2023/08/01 06:58:07;;;;;;;2.28;1.50;;;;;;;;;;5014347;28;20211;-94
2023/08/01 07:00:34;;;;;;;2.33;1.70;;;;;;;;;;5014589;28;20275;-94
2023/08/01 07:03:01;;;;;;;2.72;1.80;;;;;;;;;;5018273;28;20213;-94
2023/08/01 07:05:30;;;;;;;2.80;1.98;;;;;;;;;;5018633;28;20251;-94
2023/08/01 07:07:58;;;;;;;2.13;1.63;;;;;;;;;;5017637;28;20208;-95
2023/08/01 07:10:25;;;;;;;2.40;1.70;;;;;;;;;;5017749;28;20320;-94
2023/08/01 07:12:52;;;;;;;1.90;1.80;;;;;;;;;;5017688;28;20268;-95
2023/08/01 07:15:19;;;;;;;2.13;1.83;;;;;;;;;;5016140;28;20193;-94
2023/08/01 07:17:47;;;;;;;1.95;1.60;;;;;;;;;;5021961;28;20281;-95
2023/08/01 07:20:14;;;;;;;2.40;1.65;;;;;;;;;;5021658;28;20223;-95
2023/08/01 07:22:42;;;;;;;2.45;1.65;;;;;;;;;;5027601;28;20212;-93
2023/08/01 07:25:12;;;;;;;2.97;1.60;;;;;;;;;;5018431;28;20227;-94
2023/08/01 07:27:39;;;;;;;1.95;1.70;;;;;;;;;;5029175;28;20220;-95
2023/08/01 07:30:07;;;;;;;1.92;1.60;;;;;;;;;;5017635;28;20219;-94
2023/08/01 07:32:35;;;;;;;1.73;1.50;;;;;;;;;;5025242;28;20244;-95
2023/08/01 07:35:02;;;;;;;2.65;1.50;;;;;;;;;;5017675;28;20213;-92
2023/08/01 07:37:29;;;;;;;2.67;2.05;;;;;;;;;;5019015;28;20219;-94
2023/08/01 07:39:58;;;;;;;2.08;1.70;;;;;;;;;;5028743;28;20300;-95
2023/08/01 07:42:26;;;;;;;3.97;1.90;;;;;;;;;;5037482;28;20208;-95
2023/08/01 07:44:53;;;;;;;3.33;1.88;;;;;;;;;;5023533;28;20279;-95
2023/08/01 07:47:21;;;;;;;2.83;1.70;;;;;;;;;;5027983;28;20211;-95
2023/08/01 07:49:48;;;;;;;2.72;1.67;;;;;;;;;;5024734;28;20219;-95
2023/08/01 07:52:15;;;;;;;3.72;2.22;;;;;;;;;;5037027;28;20288;-94
2023/08/01 07:54:42;;;;;;;1.90;1.48;;;;;;;;;;5018136;28;20216;-94
2023/08/01 07:57:11;;;;;;;4.93;1.77;;;;;;;;;;5028359;28;20267;-94
2023/08/01 07:59:38;;;;;;;1.77;1.52;;;;;;;;;;5017386;28;20292;-94
2023/08/01 08:02:06;;;;;;;1.95;1.60;;;;;;;;;;5019374;28;20208;-95
2023/08/01 08:04:33;;;;;;;3.17;1.65;;;;;;;;;;5021139;28;20189;-94
2023/08/01 08:07:01;;;;;;;2.80;1.63;;;;;;;;;;5021590;28;20239;-94
2023/08/01 08:09:28;;;;;;;2.38;2.00;;;;;;;;;;5024856;28;20288;-94
2023/08/01 08:11:57;;;;;;;1.90;1.50;;;;;;;;;;5030928;28;20212;-95
2023/08/01 08:14:25;;;;;;;1.60;1.50;;;;;;;;;;5027194;28;20205;-93
2023/08/01 08:16:53;;;;;;;3.40;1.73;;;;;;;;;;5024507;28;20210;-94
2023/08/01 08:19:20;;;;;;;3.80;1.55;;;;;;;;;;5022729;28;20239;-91
2023/08/01 08:21:48;;;;;;;6.75;1.80;;;;;;;;;;5016379;28;20219;-94
2023/08/01 08:24:15;;;;;;;3.53;1.55;;;;;;;;;;5023860;28;20209;-94
2023/08/01 08:26:42;;;;;;;1.50;1.40;;;;;;;;;;5022036;28;20236;-94
2023/08/01 08:29:09;;;;;;;1.90;1.63;;;;;;;;;;5020031;28;20211;-94
2023/08/01 08:31:38;;;;;;;1.75;1.63;;;;;;;;;;5018403;28;20205;-94
2023/08/01 08:34:05;;;;;;;2.25;1.67;;;;;;;;;;5022952;28;20207;-94
2023/08/01 08:36:33;;;;;;;2.80;1.63;;;;;;;;;;5025495;28;20219;-94
2023/08/01 08:39:00;;;;;;;1.42;1.38;;;;;;;;;;5028476;28;20218;-94
2023/08/01 08:41:29;;;;;;;2.20;1.75;;;;;;;;;;5021841;28;20217;-94
2023/08/01 08:43:58;;;;;;;2.15;1.60;;;;;;;;;;5029447;28;20214;-94
2023/08/01 08:46:27;;;;;;;1.92;1.63;;;;;;;;;;5031344;28;20231;-94
2023/08/01 08:48:57;;;;;;;2.03;1.67;;;;;;;;;;5015893;28;20288;-94
2023/08/01 08:51:25;;;;;;;3.25;2.05;;;;;;;;;;5015059;28;20300;-95
2023/08/01 08:53:54;;;;;;;2.65;1.90;;;;;;;;;;5026272;28;20205;-93
2023/08/01 08:56:22;;;;;;;3.50;1.90;;;;;;;;;;5019274;28;20208;-92
2023/08/01 08:58:49;;;;;;;2.88;1.70;;;;;;;;;;5019721;28;20284;-94
2023/08/01 09:01:17;;;;;;;2.13;1.80;;;;;;;;;;5033636;28;20223;-94
2023/08/01 09:03:45;;;;;;;2.88;1.60;;;;;;;;;;5023595;28;20310;-93
2023/08/01 09:06:16;;;;;;;2.25;2.03;;;;;;;;;;5021941;28;20233;-94
2023/08/01 09:08:46;;;;;;;3.25;1.88;;;;;;;;;;5035191;28;20208;-93
2023/08/01 09:11:14;;;;;;;4.43;2.38;;;;;;;;;;5024717;28;20212;-93
2023/08/01 09:13:41;;;;;;;3.58;1.92;;;;;;;;;;5024917;28;20209;-94
2023/08/01 09:16:09;;;;;;;3.92;2.20;;;;;;;;;;5015340;28;20208;-93
2023/08/01 09:18:37;;;;;;;2.22;1.83;;;;;;;;;;5015142;28;20205;-93
2023/08/01 09:21:04;;;;;;;2.42;1.80;;;;;;;;;;5015511;28;20201;-92
2023/08/01 09:23:33;;;;;;;3.20;2.00;;;;;;;;;;5024085;28;20303;-93
2023/08/01 09:26:00;;;;;;;2.65;2.22;;;;;;;;;;5019557;28;20319;-93
2023/08/01 09:28:27;;;;;;;2.80;1.90;;;;;;;;;;5025541;28;20299;-93
2023/08/01 09:30:56;;;;;;;4.43;2.13;;;;;;;;;;5015584;28;20217;-92
2023/08/01 09:33:24;;;;;;;2.35;1.80;;;;;;;;;;5014773;28;20262;-93
2023/08/01 09:35:52;;;;;;;2.17;1.75;;;;;;;;;;5031356;28;20208;-93
2023/08/01 09:38:19;;;;;;;2.10;1.85;;;;;;;;;;5025772;28;20303;-93
2023/08/01 09:40:49;;;;;;;2.38;2.17;;;;;;;;;;5029429;28;20231;-93
2023/08/01 09:43:17;;;;;;;4.03;2.10;;;;;;;;;;5026538;28;20242;-92
2023/08/01 09:45:51;;;;;;;4.90;2.20;;;;;;;;;;5018455;28;20220;-92
2023/08/01 09:48:24;;;;;;;4.10;2.15;;;;;;;;;;5019172;28;20223;-92
2023/08/01 09:50:51;;;;;;;2.28;1.80;;;;;;;;;;5024473;28;20203;-93
2023/08/01 09:53:18;;;;;;;4.93;2.05;;;;;;;;;;5027220;28;20233;-93
2023/08/01 09:55:46;;;;;;;2.42;1.70;;;;;;;;;;5030664;28;20224;-92
2023/08/01 09:58:15;;;;;;;2.53;2.30;;;;;;;;;;5031355;28;20220;-93
2023/08/01 10:00:43;;;;;;;6.40;1.90;;;;;;;;;;5026045;28;20205;-92
2023/08/01 10:03:11;;;;;;;3.45;1.95;;;;;;;;;;5031952;28;20207;-93
2023/08/01 10:05:41;;;;;;;2.70;1.88;;;;;;;;;;5020942;28;20265;-93
2023/08/01 10:08:08;;;;;;;3.70;2.00;;;;;;;;;;5023986;28;20235;-92
2023/08/01 10:10:36;;;;;;;4.80;2.42;;;;;;;;;;5033383;28;20204;-93
2023/08/01 10:13:03;;;;;;;3.28;2.03;;;;;;;;;;5022962;28;20209;-93
2023/08/01 10:15:33;;;;;;;4.97;2.15;;;;;;;;;;5027481;28;20242;-90
2023/08/01 10:18:00;;;;;;;2.65;1.75;;;;;;;;;;5023596;28;20219;-90
2023/08/01 10:20:28;;;;;;;3.67;1.77;;;;;;;;;;5027835;28;20327;-91
2023/08/01 10:22:55;;;;;;;3.13;1.92;;;;;;;;;;5021355;28;20246;-93
2023/08/01 10:25:22;;;;;;;4.55;2.10;;;;;;;;;;5030952;28;20228;-93
2023/08/01 10:27:59;;;;;;;4.25;2.00;;;;;;;;;;5031503;28;20204;-93
2023/08/01 10:30:28;;;;;;;2.50;2.00;;;;;;;;;;5026427;28;20243;-93
2023/08/01 10:32:57;;;;;;;1.88;1.73;;;;;;;;;;5013242;28;20232;-92
2023/08/01 10:35:38;;;;;;;5.65;2.75;;;;;;;;;;5014996;28;20203;-92
2023/08/01 10:38:06;;;;;;;2.88;2.22;;;;;;;;;;5018329;28;20239;-91
2023/08/01 10:40:37;;;;;;;3.08;2.10;;;;;;;;;;5017658;28;20212;-94
2023/08/01 10:43:04;;;;;;;3.72;2.22;;;;;;;;;;5028500;28;20210;-92
2023/08/01 10:45:31;;;;;;;2.00;1.80;;;;;;;;;;5019037;28;20226;-93
2023/08/01 10:48:10;;;;;;;2.15;1.90;;;;;;;;;;5029294;28;20212;-94
2023/08/01 10:50:37;;;;;;;3.10;2.08;;;;;;;;;;5026649;28;20215;-93
2023/08/01 10:53:06;;;;;;;3.70;2.05;;;;;;;;;;5030892;28;20302;-93
2023/08/01 10:55:43;;;;;;;2.65;1.88;;;;;;;;;;5028736;28;20215;-93
2023/08/01 10:58:11;;;;;;;2.92;1.80;;;;;;;;;;5032451;28;20235;-93
2023/08/01 11:00:38;;;;;;;2.60;1.60;;;;;;;;;;5033262;28;20265;-94
2023/08/01 11:03:05;;;;;;;2.80;1.70;;;;;;;;;;5034778;28;20211;-90
2023/08/01 11:05:34;;;;;;;2.72;1.98;;;;;;;;;;5024845;28;20294;-91
2023/08/01 11:08:02;;;;;;;3.40;1.90;;;;;;;;;;5031261;28;20235;-90
2023/08/01 11:10:31;;;;;;;3.50;1.95;;;;;;;;;;5018247;28;20292;-90
2023/08/01 11:12:58;;;;;;;2.55;1.48;;;;;;;;;;5024675;28;20208;-90
2023/08/01 11:15:26;;;;;;;2.67;1.77;;;;;;;;;;5032322;28;20216;-91
2023/08/01 11:17:54;;;;;;;2.47;1.40;;;;;;;;;;5028548;28;20208;-90
2023/08/01 11:20:23;;;;;;;2.35;1.88;;;;;;;;;;5017049;28;20288;-90
2023/08/01 11:22:53;;;;;;;3.85;1.80;;;;;;;;;;5021103;28;20239;-90
2023/08/01 11:25:20;;;;;;;3.70;2.00;;;;;;;;;;5022388;28;20299;-90
2023/08/01 11:27:48;;;;;;;2.10;1.85;;;;;;;;;;5017376;28;20241;-90
2023/08/01 11:30:16;;;;;;;2.97;1.67;;;;;;;;;;5018870;28;20219;-90
2023/08/01 11:32:43;;;;;;;2.35;1.55;;;;;;;;;;5026640;28;20268;-90
2023/08/01 11:35:10;;;;;;;5.07;2.08;;;;;;;;;;5033961;28;20212;-90
2023/08/01 11:37:37;;;;;;;2.30;1.80;;;;;;;;;;5027265;28;20220;-90
2023/08/01 11:40:08;;;;;;;2.88;1.75;;;;;;;;;;5031860;28;20204;-90
2023/08/01 11:42:35;;;;;;;2.80;1.77;;;;;;;;;;5036939;28;20254;-90
2023/08/01 11:45:12;;;;;;;2.70;1.77;;;;;;;;;;5017818;28;20232;-90
2023/08/01 11:47:46;;;;;;;2.28;1.73;;;;;;;;;;5024888;28;20224;-90
2023/08/01 11:50:13;;;;;;;3.05;1.63;;;;;;;;;;5032680;28;20218;-90
2023/08/01 11:52:40;;;;;;;2.80;1.90;;;;;;;;;;5029523;28;20209;-89
2023/08/01 11:55:12;;;;;;;2.88;1.70;;;;;;;;;;5017223;28;20212;-90
2023/08/01 11:57:39;;;;;;;3.45;1.70;;;;;;;;;;5027167;28;20212;-89
2023/08/01 12:00:08;;;;;;;3.03;1.80;;;;;;;;;;5024450;28;20209;-90
2023/08/01 12:02:36;;;;;;;2.22;1.60;;;;;;;;;;5016839;28;20213;-90
2023/08/01 12:05:03;;;;;;;2.72;1.70;;;;;;;;;;5018664;28;20236;-90
2023/08/01 12:07:30;;;;;;;3.17;2.00;;;;;;;;;;5030747;28;20238;-91
2023/08/01 12:09:58;;;;;;;2.97;1.92;;;;;;;;;;5027171;28;20204;-90
2023/08/01 12:12:28;;;;;;;4.97;2.20;;;;;;;;;;5018528;28;20223;-90
2023/08/01 12:14:56;;;;;;;2.05;1.50;;;;;;;;;;5020126;28;20208;-90
2023/08/01 12:17:24;;;;;;;3.25;1.70;;;;;;;;;;5022740;28;20200;-90
2023/08/01 12:19:51;;;;;;;3.13;1.52;;;;;;;;;;5015842;28;20315;-90
2023/08/01 12:22:18;;;;;;;4.53;1.85;;;;;;;;;;5016259;28;20278;-90
2023/08/01 12:24:46;;;;;;;4.70;1.70;;;;;;;;;;5015549;28;20219;-90
2023/08/01 12:27:13;;;;;;;2.38;1.50;;;;;;;;;;5016231;28;20225;-91
2023/08/01 12:29:42;;;;;;;5.68;1.70;;;;;;;;;;5016377;28;20208;-90
2023/08/01 12:32:09;;;;;;;2.53;1.50;;;;;;;;;;5016041;28;20216;-90
2023/08/01 12:34:37;;;;;;;4.57;1.67;;;;;;;;;;5015955;28;20209;-90
2023/08/01 12:37:04;;;;;;;3.58;1.67;;;;;;;;;;5014950;28;20217;-90
2023/08/01 12:39:31;;;;;;;3.22;1.73;;;;;;;;;;5015291;28;20204;-90
2023/08/01 12:41:59;;;;;;;2.65;1.52;;;;;;;;;;5015617;28;20215;-90
2023/08/01 12:44:26;;;;;;;3.38;2.00;;;;;;;;;;5016200;28;20205;-89
2023/08/01 12:46:55;;;;;;;5.53;1.50;;;;;;;;;;5004225;28;20241;-91
2023/08/01 12:49:22;;;;;;;2.88;1.63;;;;;;;;;;5015835;28;20205;-90
2023/08/01 12:51:50;;;;;;;3.40;1.83;;;;;;;;;;5031533;28;20218;-90
2023/08/01 12:54:17;;;;;;;2.72;1.42;;;;;;;;;;5015899;28;20209;-90
2023/08/01 12:56:45;;;;;;;2.65;1.50;;;;;;;;;;5031609;28;20202;-90
2023/08/01 12:59:12;;;;;;;3.78;1.50;;;;;;;;;;5022831;28;20212;-91
2023/08/01 13:01:40;;;;;;;3.17;1.60;;;;;;;;;;5023433;28;20208;-90
2023/08/01 13:04:08;;;;;;;3.33;1.52;;;;;;;;;;5022948;28;20208;-91
2023/08/01 13:06:35;;;;;;;2.35;1.83;;;;;;;;;;5024932;28;20235;-88
2023/08/01 13:09:03;;;;;;;1.83;1.55;;;;;;;;;;5024245;28;20272;-89
2023/08/01 13:11:30;;;;;;;4.03;1.90;;;;;;;;;;5019491;28;20268;-90
2023/08/01 13:13:57;;;;;;;5.00;1.95;;;;;;;;;;5024259;28;20210;-91
2023/08/01 13:16:24;;;;;;;5.47;2.38;;;;;;;;;;5019442;28;20215;-90
2023/08/01 13:18:52;;;;;;;3.45;1.80;;;;;;;;;;5021486;28;20299;-91
2023/08/01 13:21:21;;;;;;;9.05;2.22;;;;;;;;;;5026322;28;20212;-90
2023/08/01 13:23:49;;;;;;;2.95;2.00;;;;;;;;;;4984462;28;20208;-90
2023/08/01 13:26:16;;;;;;;6.47;1.88;;;;;;;;;;4989640;28;20297;-91
2023/08/01 13:28:43;;;;;;;4.35;1.85;;;;;;;;;;4975409;28;20240;-91
2023/08/01 13:31:11;;;;;;;3.63;1.70;;;;;;;;;;4988491;28;20205;-93
2023/08/01 13:33:38;;;;;;;5.25;2.38;;;;;;;;;;4976827;28;20210;-93
2023/08/01 13:36:06;;;;;;;5.07;2.10;;;;;;;;;;4976419;28;20300;-94
2023/08/01 13:38:35;;;;;;;4.53;1.80;;;;;;;;;;4986517;28;20214;-93
2023/08/01 13:41:02;;;;;;;2.75;1.52;;;;;;;;;;4980551;28;20214;-93
2023/08/01 13:43:30;;;;;;;3.78;1.67;;;;;;;;;;4986784;28;20208;-93
2023/08/01 13:45:57;;;;;;;3.50;1.95;;;;;;;;;;4975705;28;20217;-93
2023/08/01 13:48:24;;;;;;;1.90;1.52;;;;;;;;;;4988704;28;20230;-93
2023/08/01 13:50:52;;;;;;;2.65;1.58;;;;;;;;;;4982048;28;20205;-92
2023/08/01 13:53:20;;;;;;;3.95;1.50;;;;;;;;;;4981351;28;20321;-93
2023/08/01 13:55:49;;;;;;;2.17;1.38;;;;;;;;;;4980747;28;20317;-93
2023/08/01 13:58:16;;;;;;;3.88;1.77;;;;;;;;;;4989398;28;20236;-93
2023/08/01 14:00:43;;;;;;;3.17;1.70;;;;;;;;;;4977765;28;20195;-94
2023/08/01 14:03:11;;;;;;;4.75;1.50;;;;;;;;;;4983416;28;20296;-93
2023/08/01 14:05:38;;;;;;;1.73;1.20;;;;;;;;;;4983383;28;20280;-93
2023/08/01 14:08:06;;;;;;;3.38;1.20;;;;;;;;;;4984028;28;20251;-93
2023/08/01 14:10:33;;;;;;;2.03;1.20;;;;;;;;;;4984700;28;20214;-93
2023/08/01 14:13:02;;;;;;;2.65;1.40;;;;;;;;;;4986581;28;20220;-93
2023/08/01 14:15:29;;;;;;;2.50;1.20;;;;;;;;;;4988000;28;20260;-94
2023/08/01 14:17:56;;;;;;;3.83;1.48;;;;;;;;;;4979203;28;20210;-93
2023/08/01 14:20:23;;;;;;;3.10;1.25;;;;;;;;;;4989748;28;20240;-93
2023/08/01 14:22:51;;;;;;;2.47;1.20;;;;;;;;;;4998780;28;20319;-94
2023/08/01 14:25:18;;;;;;;2.25;1.35;;;;;;;;;;5017492;28;20235;-93
2023/08/01 14:27:45;;;;;;;1.67;1.08;;;;;;;;;;5018801;28;20297;-93
2023/08/01 14:30:14;;;;;;;2.67;1.48;;;;;;;;;;5029097;28;20219;-93
2023/08/01 14:32:42;;;;;;;2.75;1.23;;;;;;;;;;5020470;28;20261;-93
2023/08/01 14:35:09;;;;;;;2.47;1.40;;;;;;;;;;5021826;28;20300;-93
2023/08/01 14:37:37;;;;;;;3.08;1.40;;;;;;;;;;5033922;28;20200;-92
2023/08/01 14:40:04;;;;;;;2.78;1.52;;;;;;;;;;5024745;28;20226;-92
2023/08/01 14:42:31;;;;;;;1.98;1.20;;;;;;;;;;5022351;28;20204;-92
2023/08/01 14:44:59;;;;;;;5.57;1.73;;;;;;;;;;5029926;28;20212;-92
2023/08/01 14:47:29;;;;;;;3.63;1.50;;;;;;;;;;5025250;28;20224;-92